Time;durP1;ratioP1;P1;durP2;ratioP2;P2;SDS_P1;SDS_P2;PMS_P1;PMS_P2;Temp;Humidity;BMP_temperature;BMP_pressure;BME280_temperature;BME280_humidity;BME280_pressure;Samples;Min_cycle;Max_cycle;Signal;HPM_P1;HPM_P2
2022/06/16 00:01:39;;;;;;;2.58;1.23;;;18.90;60.80;;;;;;5066341;28;20032;-59
2022/06/16 00:04:04;;;;;;;3.40;1.30;;;18.80;60.80;;;;;;5067378;28;20021;-60
2022/06/16 00:06:30;;;;;;;2.15;1.27;;;18.80;60.90;;;;;;5067508;28;20024;-60
2022/06/16 00:08:55;;;;;;;1.88;1.30;;;18.80;61.00;;;;;;5067076;28;20484;-59
2022/06/16 00:11:21;;;;;;;2.22;1.08;;;18.80;61.00;;;;;;5070131;28;20033;-60
2022/06/16 00:13:48;;;;;;;4.40;1.80;;;18.80;61.80;;;;;;5066761;28;20028;-60
2022/06/16 00:16:14;;;;;;;2.63;1.30;;;18.70;61.20;;;;;;5098229;28;20024;-59
2022/06/16 00:18:40;;;;;;;5.45;2.30;;;18.70;61.40;;;;;;5067934;28;20100;-60
2022/06/16 00:21:07;;;;;;;4.22;1.60;;;18.70;61.50;;;;;;5067176;28;20050;-60
2022/06/16 00:23:33;;;;;;;4.20;1.77;;;18.70;61.60;;;;;;5066441;28;20777;-60
2022/06/16 00:25:59;;;;;;;2.92;1.30;;;18.60;61.70;;;;;;5062200;28;20590;-60
2022/06/16 00:28:24;;;;;;;4.72;1.20;;;18.50;61.70;;;;;;5066889;28;20103;-59
2022/06/16 00:30:50;;;;;;;5.22;1.52;;;18.50;61.80;;;;;;5064065;28;20504;-59
2022/06/16 00:33:16;;;;;;;3.25;1.48;;;18.50;61.90;;;;;;5067933;28;20029;-59
2022/06/16 00:35:41;;;;;;;4.47;1.90;;;18.50;62.10;;;;;;5067986;28;20028;-60
2022/06/16 00:38:07;;;;;;;3.10;1.50;;;18.40;62.10;;;;;;5066269;28;20024;-60
2022/06/16 00:40:33;;;;;;;3.15;1.48;;;18.40;62.20;;;;;;5065652;28;20593;-60
2022/06/16 00:42:58;;;;;;;3.92;1.50;;;18.30;62.30;;;;;;5062813;28;20102;-60
2022/06/16 00:45:53;;;;;;;3.95;1.65;;;18.30;62.40;;;;;;5066731;28;20029;-59
2022/06/16 00:48:46;;;;;;;3.60;1.40;;;18.30;62.00;;;;;;5063605;28;20025;-60
2022/06/16 00:51:30;;;;;;;2.50;1.23;;;18.30;62.20;;;;;;5065600;28;20107;-59
2022/06/16 00:54:01;;;;;;;3.35;1.40;;;18.20;62.10;;;;;;5066102;28;20017;-60
2022/06/16 00:56:27;;;;;;;4.35;1.65;;;18.10;62.00;;;;;;5068313;28;20028;-60
2022/06/16 00:58:57;;;;;;;3.13;1.20;;;18.00;62.00;;;;;;5063922;28;20039;-60
2022/06/16 01:01:24;;;;;;;3.78;1.20;;;18.00;62.10;;;;;;5065710;28;20021;-60
2022/06/16 01:06:35;;;;;;;3.17;1.73;;;17.90;62.20;;;;;;5066157;28;20094;-60
2022/06/16 01:09:03;;;;;;;1.90;1.20;;;17.80;62.30;;;;;;5062958;28;20048;-60
2022/06/16 01:15:01;;;;;;;3.42;1.20;;;17.80;62.30;;;;;;5068747;28;20027;-60
2022/06/16 01:17:44;;;;;;;2.70;1.08;;;17.80;62.30;;;;;;5065702;28;20029;-59
2022/06/16 01:20:28;;;;;;;2.10;1.13;;;17.70;62.30;;;;;;5071148;28;20025;-60
2022/06/16 01:23:17;;;;;;;2.50;1.00;;;17.70;62.40;;;;;;5069976;28;21747;-60
2022/06/16 01:25:57;;;;;;;;;;;17.70;62.40;;;;;;5068311;28;20490;-60
2022/06/16 01:28:45;;;;;;;1.85;0.70;;;17.60;62.50;;;;;;5066869;28;20398;-60
2022/06/16 01:31:22;;;;;;;2.85;1.08;;;17.50;62.60;;;;;;5070423;28;20443;-60
2022/06/16 01:34:20;;;;;;;2.78;1.10;;;17.50;62.60;;;;;;5070015;28;20031;-60
2022/06/16 01:37:00;;;;;;;2.25;0.90;;;17.50;62.70;;;;;;5070844;28;20029;-59
2022/06/16 01:39:36;;;;;;;1.70;1.10;;;17.40;62.80;;;;;;5073092;28;20078;-59
2022/06/16 01:42:15;;;;;;;2.17;1.20;;;17.30;62.90;;;;;;5068410;28;20024;-60
2022/06/16 01:44:45;;;;;;;3.90;1.20;;;17.40;63.00;;;;;;5063948;28;20544;-60
2022/06/16 01:47:17;;;;;;;3.58;1.45;;;17.30;63.20;;;;;;5071071;28;20054;-59
2022/06/16 01:49:49;;;;;;;2.10;1.35;;;17.30;63.40;;;;;;5068970;28;20029;-60
2022/06/16 01:52:20;;;;;;;2.88;1.20;;;17.20;63.40;;;;;;5068668;28;20063;-59
2022/06/16 01:54:52;;;;;;;2.60;1.30;;;17.20;63.50;;;;;;5069007;28;20068;-60
2022/06/16 01:57:27;;;;;;;2.75;1.10;;;17.20;63.60;;;;;;5067811;28;20028;-60
2022/06/16 02:00:04;;;;;;;2.03;1.10;;;17.10;63.60;;;;;;5069238;28;20102;-59
2022/06/16 02:02:32;;;;;;;3.58;1.20;;;17.10;63.80;;;;;;5069634;28;20179;-60
2022/06/16 02:05:05;;;;;;;2.75;1.08;;;17.00;64.10;;;;;;5070182;28;20055;-59
2022/06/16 02:07:43;;;;;;;2.15;1.10;;;17.00;64.30;;;;;;5068400;28;20045;-60
2022/06/16 02:10:15;;;;;;;2.50;1.23;;;16.90;64.20;;;;;;5065189;28;20024;-60
2022/06/16 02:12:56;;;;;;;2.10;1.17;;;16.90;64.30;;;;;;5067586;28;20100;-59
2022/06/16 02:15:33;;;;;;;2.13;1.23;;;16.90;64.30;;;;;;5067647;28;20044;-60
2022/06/16 02:18:00;;;;;;;2.17;1.00;;;16.80;64.30;;;;;;5065497;28;20233;-59
2022/06/16 02:20:33;;;;;;;2.63;0.90;;;16.70;64.40;;;;;;5069218;28;20040;-59
2022/06/16 02:22:59;;;;;;;3.00;1.35;;;16.70;65.10;;;;;;5066986;28;20507;-59
2022/06/16 02:25:25;;;;;;;2.05;1.10;;;16.70;64.60;;;;;;5068051;28;20029;-60
2022/06/16 02:27:50;;;;;;;2.65;1.15;;;16.60;64.60;;;;;;5069256;28;20028;-59
2022/06/16 02:30:16;;;;;;;4.28;1.23;;;16.60;64.80;;;;;;5068879;28;20051;-60
2022/06/16 02:33:15;;;;;;;1.98;1.20;;;16.50;64.90;;;;;;5069129;28;20111;-59
2022/06/16 02:35:54;;;;;;;2.88;1.20;;;16.50;65.00;;;;;;5066227;28;20377;-61
2022/06/16 02:38:50;;;;;;;4.70;1.30;;;16.50;65.30;;;;;;5066903;28;20028;-60
2022/06/16 02:41:51;;;;;;;1.55;1.38;;;16.50;66.10;;;;;;5068240;28;20024;-59
2022/06/16 02:45:04;;;;;;;3.38;1.30;;;16.30;65.50;;;;;;5069017;28;20032;-59
2022/06/16 02:47:57;;;;;;;2.35;1.65;;;16.20;65.90;;;;;;5064150;28;20038;-59
2022/06/16 02:50:36;;;;;;;2.92;0.93;;;16.10;66.00;;;;;;5067420;28;20046;-59
2022/06/16 02:53:30;;;;;;;2.15;1.10;;;16.10;66.30;;;;;;5067876;28;20021;-59
2022/06/16 02:56:05;;;;;;;2.17;1.08;;;16.00;66.50;;;;;;5066866;28;20048;-59
2022/06/16 02:58:33;;;;;;;3.47;1.50;;;15.90;66.70;;;;;;5066827;28;20028;-59
2022/06/16 03:01:01;;;;;;;2.20;1.17;;;15.90;67.00;;;;;;5067619;28;20043;-59
2022/06/16 03:03:29;;;;;;;2.40;1.20;;;15.80;67.30;;;;;;5066507;28;20481;-59
2022/06/16 03:05:57;;;;;;;2.27;1.00;;;15.80;67.60;;;;;;5067238;28;20033;-59
2022/06/16 03:08:26;;;;;;;4.30;1.50;;;15.70;67.70;;;;;;5069216;28;20070;-60
2022/06/16 03:10:52;;;;;;;2.25;1.27;;;15.60;67.80;;;;;;5067619;28;20609;-60
2022/06/16 03:13:29;;;;;;;2.78;1.30;;;15.60;68.00;;;;;;5067695;28;20032;-59
2022/06/16 03:15:56;;;;;;;4.13;1.30;;;15.50;68.20;;;;;;5067796;28;20050;-59
2022/06/16 03:18:23;;;;;;;2.22;1.17;;;15.50;68.40;;;;;;5067812;28;20414;-59
2022/06/16 03:20:50;;;;;;;3.35;1.42;;;15.40;68.50;;;;;;5068988;28;20020;-60
2022/06/16 03:23:16;;;;;;;2.30;1.45;;;15.40;68.70;;;;;;5068039;28;20074;-59
2022/06/16 03:25:42;;;;;;;2.22;1.50;;;15.30;69.00;;;;;;5067922;28;20029;-60
2022/06/16 03:28:09;;;;;;;3.17;1.30;;;15.30;69.00;;;;;;5066119;28;20116;-60
2022/06/16 03:30:36;;;;;;;3.15;1.73;;;15.30;69.30;;;;;;5069388;28;20052;-59
2022/06/16 03:33:02;;;;;;;4.00;1.98;;;15.20;69.60;;;;;;5066120;28;20362;-60
2022/06/16 03:35:29;;;;;;;4.60;1.65;;;15.10;69.90;;;;;;5068141;28;20016;-60
2022/06/16 03:37:54;;;;;;;1.85;1.20;;;15.00;70.20;;;;;;5065329;28;20052;-59
2022/06/16 03:40:20;;;;;;;4.40;1.88;;;15.00;70.40;;;;;;5068039;28;20459;-59
2022/06/16 03:42:47;;;;;;;2.30;1.45;;;14.90;70.50;;;;;;5067625;28;20095;-60
2022/06/16 03:45:13;;;;;;;2.78;1.52;;;14.90;70.60;;;;;;5066542;28;20430;-59
2022/06/16 03:47:38;;;;;;;1.40;1.20;;;15.00;70.70;;;;;;5066521;28;20021;-59
2022/06/16 03:50:05;;;;;;;2.63;1.23;;;14.90;70.80;;;;;;5068119;28;20033;-59
2022/06/16 03:52:31;;;;;;;3.42;1.70;;;14.90;70.90;;;;;;5067710;28;20025;-59
2022/06/16 03:54:56;;;;;;;4.10;1.63;;;14.90;71.10;;;;;;5064926;28;20455;-60
2022/06/16 03:57:22;;;;;;;3.20;1.48;;;14.80;71.20;;;;;;5067355;28;20098;-59
2022/06/16 03:59:47;;;;;;;2.13;1.38;;;14.80;71.40;;;;;;5067985;28;20029;-60
2022/06/16 04:02:13;;;;;;;2.17;1.65;;;14.70;71.50;;;;;;5067412;28;20059;-59
2022/06/16 04:04:38;;;;;;;5.32;1.70;;;14.70;71.70;;;;;;5065090;28;20028;-59
2022/06/16 04:07:04;;;;;;;2.03;1.38;;;14.60;71.80;;;;;;5067188;28;20100;-59
2022/06/16 04:09:30;;;;;;;2.45;1.10;;;14.60;72.00;;;;;;5068971;28;20025;-59
2022/06/16 04:11:55;;;;;;;2.25;1.60;;;14.60;72.30;;;;;;5067694;28;20025;-59
2022/06/16 04:14:21;;;;;;;1.90;1.55;;;14.60;72.80;;;;;;5065375;28;20487;-59
2022/06/16 04:16:51;;;;;;;2.00;1.42;;;14.50;73.00;;;;;;5065963;28;20548;-59
2022/06/16 04:19:18;;;;;;;4.22;1.33;;;14.60;73.30;;;;;;5068267;28;20028;-59
2022/06/16 04:21:46;;;;;;;3.53;1.63;;;14.60;73.40;;;;;;5066311;28;20503;-59
2022/06/16 04:24:12;;;;;;;4.13;2.05;;;14.60;73.50;;;;;;5067047;28;20029;-59
2022/06/16 04:26:39;;;;;;;3.90;2.03;;;14.50;73.60;;;;;;5065835;28;20043;-59
2022/06/16 04:29:06;;;;;;;3.15;1.67;;;14.60;73.80;;;;;;5067953;28;20047;-59
2022/06/16 04:31:32;;;;;;;4.50;1.75;;;14.60;73.90;;;;;;5067381;28;20097;-59
2022/06/16 04:33:58;;;;;;;2.28;1.50;;;14.60;74.10;;;;;;5066395;28;20416;-59
2022/06/16 04:36:24;;;;;;;2.00;1.35;;;14.60;74.20;;;;;;5065327;28;20029;-59
2022/06/16 04:38:50;;;;;;;1.65;1.30;;;14.60;74.10;;;;;;5067824;28;20029;-59
2022/06/16 04:41:16;;;;;;;4.03;1.83;;;14.60;74.10;;;;;;5065320;28;20025;-59
2022/06/16 04:43:42;;;;;;;3.45;1.67;;;14.60;74.00;;;;;;5066419;28;20024;-59
2022/06/16 04:46:08;;;;;;;2.92;1.77;;;14.60;73.90;;;;;;5069472;28;20032;-59
2022/06/16 04:48:35;;;;;;;2.15;1.70;;;14.70;73.90;;;;;;5065663;28;20078;-59
2022/06/16 04:51:03;;;;;;;3.45;1.63;;;14.70;73.90;;;;;;5068606;28;20059;-60
2022/06/16 04:53:29;;;;;;;2.10;1.60;;;14.70;73.90;;;;;;5071476;28;20031;-59
2022/06/16 04:55:56;;;;;;;3.65;1.55;;;14.70;73.90;;;;;;5070173;28;20483;-60
2022/06/16 04:58:23;;;;;;;4.47;2.15;;;14.70;73.80;;;;;;5067101;28;20033;-59
2022/06/16 05:00:50;;;;;;;2.35;1.63;;;14.70;73.90;;;;;;5071741;28;20024;-59
2022/06/16 05:03:17;;;;;;;4.15;2.05;;;14.70;74.00;;;;;;5068965;28;20055;-59
2022/06/16 05:05:46;;;;;;;4.03;1.90;;;14.70;74.00;;;;;;5069960;28;20025;-59
2022/06/16 05:08:12;;;;;;;2.50;1.20;;;14.80;74.10;;;;;;5068873;28;20458;-59
2022/06/16 05:10:37;;;;;;;2.67;1.80;;;14.80;74.10;;;;;;5071104;28;20029;-59
2022/06/16 05:13:03;;;;;;;2.05;1.50;;;14.90;74.10;;;;;;5068008;28;20515;-59
2022/06/16 05:15:28;;;;;;;2.92;1.55;;;14.90;74.00;;;;;;5070684;28;20484;-59
2022/06/16 05:17:54;;;;;;;3.60;1.88;;;14.90;74.10;;;;;;5068911;28;20058;-59
2022/06/16 05:20:19;;;;;;;3.70;1.90;;;14.90;74.30;;;;;;5070705;28;20090;-59
2022/06/16 05:22:45;;;;;;;2.90;1.65;;;14.90;74.40;;;;;;5070571;28;20095;-59
2022/06/16 05:25:10;;;;;;;3.22;1.92;;;14.90;74.40;;;;;;5067277;28;20476;-59
2022/06/16 05:27:36;;;;;;;3.28;2.25;;;15.00;74.50;;;;;;5071502;28;20028;-59
2022/06/16 05:30:03;;;;;;;6.45;2.08;;;15.00;74.60;;;;;;5069427;28;20063;-59
2022/06/16 05:32:28;;;;;;;4.35;2.33;;;15.00;74.60;;;;;;5070351;28;20539;-59
2022/06/16 05:34:54;;;;;;;2.50;2.22;;;15.00;74.70;;;;;;5066976;28;20065;-59
2022/06/16 05:37:19;;;;;;;3.53;1.95;;;15.00;74.90;;;;;;5070859;28;20021;-59
2022/06/16 05:39:47;;;;;;;4.13;2.10;;;15.10;75.10;;;;;;5069573;28;20117;-59
2022/06/16 05:42:13;;;;;;;5.72;2.63;;;15.10;75.20;;;;;;5070030;28;20492;-59
2022/06/16 05:44:38;;;;;;;4.70;2.65;;;15.10;75.20;;;;;;5067613;28;20366;-59
2022/06/16 05:47:05;;;;;;;3.75;2.30;;;15.10;75.30;;;;;;5068612;28;20448;-59
2022/06/16 05:49:30;;;;;;;4.40;3.08;;;15.20;75.40;;;;;;5070249;28;20582;-59
2022/06/16 05:51:56;;;;;;;4.75;2.40;;;15.20;75.40;;;;;;5070355;28;20054;-59
2022/06/16 05:54:21;;;;;;;5.28;2.75;;;15.30;75.60;;;;;;5066055;28;20044;-60
2022/06/16 05:56:47;;;;;;;3.38;2.22;;;15.30;75.80;;;;;;5069983;28;20541;-59
2022/06/16 05:59:12;;;;;;;5.50;2.08;;;15.30;75.70;;;;;;5069684;28;20028;-60
2022/06/16 06:01:38;;;;;;;4.22;2.08;;;15.40;75.40;;;;;;5069170;28;20098;-60
2022/06/16 06:04:04;;;;;;;4.80;2.70;;;15.40;75.30;;;;;;5066877;28;20025;-59
2022/06/16 06:06:30;;;;;;;4.80;2.22;;;15.40;75.20;;;;;;5063688;28;20024;-59
2022/06/16 06:17:15;;;;;;;2.65;1.50;;;15.60;74.00;;;;;;5068523;28;20514;-59
2022/06/16 06:19:42;;;;;;;3.15;1.40;;;15.60;73.60;;;;;;5068289;28;20068;-59
2022/06/16 06:22:19;;;;;;;2.17;1.38;;;15.70;73.60;;;;;;5062275;28;20439;-59
2022/06/16 06:24:54;;;;;;;4.13;1.40;;;15.80;73.60;;;;;;5060916;28;20025;-59
2022/06/16 06:27:41;;;;;;;2.55;1.10;;;15.80;73.40;;;;;;5059464;28;20025;-59
2022/06/16 06:30:13;;;;;;;2.40;1.00;;;15.90;73.20;;;;;;5059547;28;20469;-59
2022/06/16 06:32:39;;;;;;;3.53;1.30;;;15.90;73.50;;;;;;5061702;28;20025;-59
2022/06/16 06:35:06;;;;;;;3.88;1.08;;;16.00;72.60;;;;;;5073541;28;20043;-59
2022/06/16 06:37:31;;;;;;;2.20;0.90;;;16.00;72.50;;;;;;5086723;28;20036;-59
2022/06/16 06:39:57;;;;;;;4.97;1.33;;;16.10;72.50;;;;;;5076544;28;20029;-59
2022/06/16 06:42:23;;;;;;;2.78;1.10;;;16.20;72.50;;;;;;5071010;28;20032;-59
2022/06/16 06:44:49;;;;;;;3.85;1.10;;;16.20;72.00;;;;;;5064922;28;20021;-59
2022/06/16 06:47:25;;;;;;;2.67;1.13;;;16.30;71.80;;;;;;5077908;28;20016;-59
2022/06/16 06:49:51;;;;;;;1.88;0.73;;;16.40;71.70;;;;;;5086194;28;20060;-60
2022/06/16 06:52:17;;;;;;;3.53;1.00;;;16.40;71.50;;;;;;5064674;28;20025;-60
2022/06/16 06:54:45;;;;;;;2.13;0.75;;;16.50;70.90;;;;;;5060130;28;20493;-59
2022/06/16 06:57:14;;;;;;;2.50;0.70;;;16.50;70.40;;;;;;5086676;28;20019;-59
2022/06/16 06:59:40;;;;;;;2.33;0.70;;;16.60;69.70;;;;;;5064162;28;20254;-59
2022/06/16 07:02:07;;;;;;;2.72;0.80;;;16.70;69.30;;;;;;5065995;28;20484;-59
2022/06/16 07:04:32;;;;;;;4.38;0.82;;;16.70;69.00;;;;;;5063696;28;20024;-59
2022/06/16 07:06:58;;;;;;;2.33;0.70;;;16.80;68.40;;;;;;5071984;28;20047;-60
2022/06/16 07:09:23;;;;;;;3.30;0.90;;;16.80;68.40;;;;;;5053573;28;20488;-59
2022/06/16 07:11:49;;;;;;;3.40;0.93;;;16.90;68.60;;;;;;5068441;28;20025;-59
2022/06/16 07:14:14;;;;;;;1.83;0.60;;;17.00;68.70;;;;;;5052102;28;20037;-59
2022/06/16 07:16:40;;;;;;;2.17;0.80;;;17.00;68.70;;;;;;5059654;28;20105;-59
2022/06/16 07:19:06;;;;;;;2.25;0.70;;;17.10;68.30;;;;;;5056048;28;20017;-59
2022/06/16 07:21:32;;;;;;;3.67;0.60;;;17.20;68.40;;;;;;5062093;28;20086;-59
2022/06/16 07:23:57;;;;;;;4.47;0.60;;;17.30;68.50;;;;;;5053530;28;20013;-59
2022/06/16 07:26:24;;;;;;;2.40;0.90;;;17.40;68.20;;;;;;5056782;28;20035;-59
2022/06/16 07:28:49;;;;;;;2.92;0.85;;;17.40;68.10;;;;;;5089606;28;20021;-59
2022/06/16 07:31:15;;;;;;;2.35;1.02;;;17.50;67.90;;;;;;5057155;28;20028;-59
2022/06/16 07:33:41;;;;;;;2.60;0.73;;;17.60;67.90;;;;;;5054214;28;20499;-59
2022/06/16 07:36:08;;;;;;;2.65;0.60;;;17.70;67.70;;;;;;5059132;28;20033;-59
2022/06/16 07:38:34;;;;;;;2.67;0.73;;;17.70;67.50;;;;;;5056570;28;20472;-59
2022/06/16 07:43:44;;;;;;;2.25;0.65;;;17.90;67.20;;;;;;5068773;28;20019;-59
2022/06/16 07:46:09;;;;;;;1.58;0.40;;;18.00;66.40;;;;;;5062863;28;20021;-59
2022/06/16 07:48:35;;;;;;;2.47;0.60;;;18.10;66.10;;;;;;5071515;28;20024;-59
2022/06/16 07:51:01;;;;;;;3.53;0.50;;;18.10;66.00;;;;;;5060856;28;20025;-59
2022/06/16 07:53:27;;;;;;;2.15;0.60;;;18.20;65.80;;;;;;5068927;28;20393;-59
2022/06/16 07:55:52;;;;;;;3.20;0.63;;;18.30;65.10;;;;;;5067641;28;20427;-59
2022/06/16 07:58:18;;;;;;;2.38;0.70;;;18.40;65.00;;;;;;5057388;28;20033;-59
2022/06/16 08:00:43;;;;;;;1.55;0.50;;;18.40;62.90;;;;;;5054787;28;20373;-59
2022/06/16 08:03:10;;;;;;;2.95;0.50;;;18.50;62.40;;;;;;5069745;28;20523;-59
2022/06/16 08:05:36;;;;;;;3.50;0.70;;;18.50;62.10;;;;;;5054760;28;20025;-59
2022/06/16 08:08:02;;;;;;;3.00;0.90;;;18.60;62.00;;;;;;5058728;28;20078;-59
2022/06/16 08:10:29;;;;;;;1.85;0.70;;;18.70;61.50;;;;;;5054528;28;20045;-59
2022/06/16 08:12:56;;;;;;;2.75;0.70;;;18.80;61.50;;;;;;5055723;28;20021;-59
2022/06/16 08:15:22;;;;;;;3.38;0.95;;;18.90;61.90;;;;;;5077696;28;20052;-59
2022/06/16 08:17:50;;;;;;;2.05;0.60;;;18.90;61.50;;;;;;5066536;28;20055;-59
2022/06/16 08:20:17;;;;;;;1.55;0.55;;;19.00;61.10;;;;;;5070316;28;20028;-59
2022/06/16 08:22:43;;;;;;;2.05;0.68;;;19.10;61.10;;;;;;5065607;28;20546;-59
2022/06/16 08:25:12;;;;;;;1.40;0.60;;;19.10;61.00;;;;;;5064210;28;20024;-59
2022/06/16 08:27:40;;;;;;;1.85;0.60;;;19.20;60.60;;;;;;5064477;28;20016;-59
2022/06/16 08:30:09;;;;;;;3.90;0.70;;;19.30;60.50;;;;;;5071630;28;20020;-59
2022/06/16 08:32:36;;;;;;;1.02;0.60;;;19.40;60.40;;;;;;5064543;28;20021;-59
2022/06/16 08:35:03;;;;;;;4.25;0.70;;;19.50;60.20;;;;;;5066902;28;20021;-59
2022/06/16 08:37:28;;;;;;;2.70;0.70;;;19.60;59.90;;;;;;5066541;28;20028;-59
2022/06/16 08:39:54;;;;;;;1.92;0.52;;;19.60;59.60;;;;;;5065886;28;20029;-59
2022/06/16 08:42:50;;;;;;;3.10;0.90;;;19.70;59.60;;;;;;5063771;28;20025;-59
2022/06/16 08:45:38;;;;;;;1.73;0.70;;;19.80;59.10;;;;;;5056216;28;20057;-59
2022/06/16 08:48:16;;;;;;;2.03;0.68;;;19.90;58.70;;;;;;5060818;28;20100;-59
2022/06/16 08:50:54;;;;;;;3.08;0.77;;;19.90;58.90;;;;;;5051342;28;20029;-59
2022/06/16 08:53:49;;;;;;;1.50;0.50;;;20.00;58.70;;;;;;5052779;28;20024;-59
2022/06/16 08:56:27;;;;;;;3.03;0.68;;;20.10;58.10;;;;;;5052105;28;20442;-59
2022/06/16 08:59:03;;;;;;;3.72;0.80;;;20.10;57.90;;;;;;5052188;28;20573;-59
2022/06/16 09:01:36;;;;;;;1.33;0.70;;;20.20;57.80;;;;;;5052892;28;20086;-59
2022/06/16 09:04:09;;;;;;;1.70;0.60;;;20.20;57.30;;;;;;5054378;28;20597;-59
2022/06/16 09:07:11;;;;;;;2.78;0.70;;;20.40;57.40;;;;;;5052453;28;20029;-59
2022/06/16 09:10:15;;;;;;;2.83;1.05;;;20.40;57.10;;;;;;5060577;28;20076;-59
2022/06/16 09:13:35;;;;;;;4.38;1.60;;;20.50;57.20;;;;;;5063370;28;20078;-59
2022/06/16 09:16:19;;;;;;;1.27;0.60;;;20.70;57.10;;;;;;5044488;28;20028;-60
2022/06/16 09:18:47;;;;;;;1.42;0.70;;;20.70;56.50;;;;;;5050144;28;20036;-60
2022/06/16 09:21:27;;;;;;;3.38;1.00;;;20.80;56.40;;;;;;5053474;28;20029;-59
2022/06/16 09:24:23;;;;;;;2.35;0.65;;;20.80;55.70;;;;;;5068766;28;20032;-59
2022/06/16 09:26:54;;;;;;;2.13;0.80;;;20.90;55.40;;;;;;5064177;28;20021;-59
2022/06/16 09:29:42;;;;;;;1.58;0.70;;;20.90;55.80;;;;;;5056722;28;20035;-60
2022/06/16 09:32:08;;;;;;;1.52;0.65;;;21.00;56.10;;;;;;5062731;28;20071;-60
2022/06/16 09:34:55;;;;;;;3.38;0.73;;;21.10;56.30;;;;;;5053045;28;20016;-60
2022/06/16 09:37:35;;;;;;;0.90;0.50;;;21.20;56.20;;;;;;5064027;28;20036;-59
2022/06/16 09:40:09;;;;;;;2.05;0.90;;;21.30;56.20;;;;;;5061918;28;20132;-60
2022/06/16 09:42:41;;;;;;;2.58;1.00;;;21.40;55.40;;;;;;5061718;28;20095;-60
2022/06/16 09:45:20;;;;;;;5.82;0.80;;;21.40;55.20;;;;;;5062881;28;20056;-60
2022/06/16 09:47:59;;;;;;;1.77;0.80;;;21.50;55.30;;;;;;5064546;28;20059;-60
2022/06/16 09:50:48;;;;;;;3.70;0.70;;;21.50;55.30;;;;;;5059842;28;20384;-60
2022/06/16 09:53:19;;;;;;;1.23;0.70;;;21.70;55.60;;;;;;5055683;28;20037;-60
2022/06/16 09:55:54;;;;;;;3.88;0.77;;;21.70;55.40;;;;;;5067291;28;20060;-59
2022/06/16 09:58:31;;;;;;;2.63;0.90;;;21.80;55.10;;;;;;5069184;28;20071;-60
2022/06/16 10:00:59;;;;;;;1.95;0.90;;;21.90;54.50;;;;;;5084043;28;20052;-60
2022/06/16 10:03:50;;;;;;;2.13;0.65;;;21.90;54.90;;;;;;5063920;28;20428;-60
2022/06/16 10:06:38;;;;;;;0.90;0.60;;;22.00;55.10;;;;;;5057269;28;20032;-60
2022/06/16 10:09:14;;;;;;;4.18;1.00;;;22.20;55.40;;;;;;5063052;28;20028;-60
2022/06/16 10:11:54;;;;;;;6.07;1.40;;;22.20;54.60;;;;;;5058246;28;20034;-60
2022/06/16 10:14:31;;;;;;;2.33;1.00;;;22.20;53.90;;;;;;5059461;28;20025;-60
2022/06/16 10:17:17;;;;;;;3.17;1.00;;;22.20;54.40;;;;;;5069656;28;20485;-60
2022/06/16 10:19:44;;;;;;;3.22;1.08;;;22.30;54.50;;;;;;5055506;28;20021;-59
2022/06/16 10:22:13;;;;;;;2.00;0.70;;;22.40;54.50;;;;;;5064015;28;20009;-60
2022/06/16 10:24:47;;;;;;;2.28;1.10;;;22.50;54.30;;;;;;5063975;28;20028;-60
2022/06/16 10:27:15;;;;;;;1.92;0.95;;;22.50;54.20;;;;;;5063869;28;20021;-59
2022/06/16 10:29:52;;;;;;;1.27;0.70;;;22.60;54.30;;;;;;5053482;28;20017;-60
2022/06/16 10:32:19;;;;;;;2.80;0.80;;;22.70;54.50;;;;;;5058603;28;20098;-60
2022/06/16 10:34:51;;;;;;;3.60;1.42;;;22.70;54.50;;;;;;5064028;28;20025;-60
2022/06/16 10:37:27;;;;;;;1.70;0.80;;;22.80;53.20;;;;;;5062475;28;20077;-59
2022/06/16 10:40:03;;;;;;;1.92;0.90;;;22.90;53.80;;;;;;5062098;28;20033;-60
2022/06/16 10:42:42;;;;;;;2.92;0.75;;;23.00;53.70;;;;;;5052880;28;20047;-60
2022/06/16 10:45:11;;;;;;;2.72;1.05;;;23.10;53.90;;;;;;5070252;28;20096;-60
2022/06/16 10:47:46;;;;;;;4.53;1.08;;;23.20;53.50;;;;;;5059973;28;20484;-60
2022/06/16 10:50:30;;;;;;;2.55;1.00;;;23.30;53.50;;;;;;5063126;28;20036;-60
2022/06/16 10:53:32;;;;;;;2.95;0.80;;;23.40;53.70;;;;;;5062219;28;20017;-60
2022/06/16 10:56:07;;;;;;;3.60;0.85;;;23.50;53.70;;;;;;5045176;28;20047;-60
2022/06/16 10:58:57;;;;;;;1.80;0.90;;;23.60;53.50;;;;;;5074042;28;20417;-60
2022/06/16 11:01:36;;;;;;;2.35;0.90;;;23.80;53.50;;;;;;5072364;28;20082;-60
2022/06/16 11:04:12;;;;;;;2.65;0.73;;;23.80;53.10;;;;;;5077266;28;20079;-60
2022/06/16 11:06:44;;;;;;;3.97;1.33;;;24.00;52.90;;;;;;5077528;28;20017;-60
2022/06/16 11:09:09;;;;;;;2.80;1.00;;;24.00;52.40;;;;;;5071876;28;20024;-59
2022/06/16 11:11:52;;;;;;;2.83;1.17;;;24.10;52.10;;;;;;5079912;28;20028;-60
2022/06/16 11:14:27;;;;;;;2.08;0.80;;;24.20;52.20;;;;;;5058815;28;20115;-60
2022/06/16 11:16:55;;;;;;;2.92;0.65;;;24.30;52.20;;;;;;5061630;28;20374;-60
2022/06/16 11:19:26;;;;;;;3.33;0.90;;;24.50;52.30;;;;;;5065905;28;21329;-60
2022/06/16 11:21:53;;;;;;;2.15;1.10;;;24.60;52.20;;;;;;5061340;28;20067;-60
2022/06/16 11:24:36;;;;;;;2.40;1.10;;;24.70;51.80;;;;;;5068194;28;20103;-60
2022/06/16 11:27:15;;;;;;;2.60;0.95;;;24.80;50.70;;;;;;5065443;28;20033;-60
2022/06/16 11:29:41;;;;;;;;;;;25.00;50.50;;;;;;5070835;28;20104;-60
2022/06/16 11:32:24;;;;;;;2.42;0.80;;;25.10;50.80;;;;;;5069660;28;19912;-60
2022/06/16 11:34:49;;;;;;;3.08;0.93;;;25.20;50.90;;;;;;5060746;28;20104;-60
2022/06/16 11:37:37;;;;;;;2.08;1.05;;;25.30;50.90;;;;;;5071404;28;20540;-60
2022/06/16 11:40:16;;;;;;;2.08;0.82;;;25.40;49.40;;;;;;5069970;28;20025;-60
2022/06/16 11:43:02;;;;;;;1.90;0.80;;;25.40;49.70;;;;;;5061173;28;20412;-60
2022/06/16 11:45:47;;;;;;;2.03;0.80;;;25.60;49.60;;;;;;5073419;28;20031;-60
2022/06/16 11:48:17;;;;;;;1.90;0.70;;;25.70;49.20;;;;;;5065510;28;20037;-60
2022/06/16 11:50:54;;;;;;;1.73;0.88;;;25.90;49.20;;;;;;5065115;28;20376;-60
2022/06/16 11:53:23;;;;;;;4.90;1.13;;;26.00;49.40;;;;;;5051556;28;20114;-59
2022/06/16 11:56:01;;;;;;;1.67;0.80;;;26.20;49.20;;;;;;5069801;28;20523;-59
2022/06/16 11:58:42;;;;;;;2.23;0.90;;;26.30;48.10;;;;;;5067643;28;20299;-59
2022/06/16 12:01:10;;;;;;;3.03;0.73;;;26.50;48.40;;;;;;5067899;28;20021;-60
2022/06/16 12:03:41;;;;;;;3.10;0.82;;;26.60;47.90;;;;;;5063158;28;20036;-60
2022/06/16 12:06:38;;;;;;;2.40;0.80;;;26.70;47.70;;;;;;5068106;28;20013;-60
2022/06/16 12:09:33;;;;;;;2.28;0.90;;;26.90;47.90;;;;;;5084022;28;20535;-59
2022/06/16 12:12:23;;;;;;;2.85;1.17;;;27.10;48.00;;;;;;5052567;28;20037;-60
2022/06/16 12:14:54;;;;;;;1.50;0.70;;;27.20;47.10;;;;;;5072037;28;20030;-60
2022/06/16 12:17:40;;;;;;;1.30;0.90;;;27.30;47.00;;;;;;5063192;28;20397;-60
2022/06/16 12:20:29;;;;;;;2.17;1.00;;;27.50;46.90;;;;;;5057741;28;20028;-60
2022/06/16 12:23:05;;;;;;;3.10;0.80;;;27.60;47.00;;;;;;5069190;28;20046;-60
2022/06/16 12:25:45;;;;;;;2.20;0.70;;;27.70;46.60;;;;;;5066466;28;20016;-60
2022/06/16 12:28:30;;;;;;;1.90;0.77;;;27.80;46.40;;;;;;5069713;28;20052;-60
2022/06/16 12:31:33;;;;;;;1.20;0.70;;;27.80;46.10;;;;;;5066047;28;20045;-60
2022/06/16 12:34:11;;;;;;;2.58;0.88;;;28.00;45.60;;;;;;5056490;28;20071;-60
2022/06/16 12:36:45;;;;;;;2.28;0.80;;;28.10;44.50;;;;;;5059012;28;20017;-60
2022/06/16 12:39:17;;;;;;;1.92;0.70;;;28.20;44.70;;;;;;5058770;28;20025;-60
2022/06/16 12:41:48;;;;;;;2.42;0.80;;;28.20;44.10;;;;;;5059581;28;20496;-59
2022/06/16 12:44:32;;;;;;;1.65;0.70;;;28.20;44.40;;;;;;5064509;28;20488;-59
2022/06/16 12:47:05;;;;;;;1.80;0.90;;;28.40;44.70;;;;;;5066867;28;20021;-60
2022/06/16 12:49:39;;;;;;;2.58;1.00;;;28.60;44.90;;;;;;5053724;28;20092;-60
2022/06/16 12:52:13;;;;;;;1.30;0.68;;;28.70;45.00;;;;;;5053365;28;20434;-60
2022/06/16 12:54:45;;;;;;;1.90;0.70;;;28.80;45.10;;;;;;5053556;28;20447;-60
2022/06/16 12:57:18;;;;;;;1.48;0.60;;;29.00;45.10;;;;;;5065903;28;20024;-60
2022/06/16 12:59:55;;;;;;;1.58;0.57;;;29.30;45.00;;;;;;5066411;28;20068;-61
2022/06/16 13:02:26;;;;;;;1.75;1.00;;;29.50;44.60;;;;;;5068546;28;20027;-60
2022/06/16 13:04:55;;;;;;;1.48;0.70;;;29.60;44.20;;;;;;5064382;28;20024;-60
2022/06/16 13:07:24;;;;;;;1.38;0.70;;;29.70;43.90;;;;;;5064715;28;20404;-59
2022/06/16 13:09:53;;;;;;;2.85;1.10;;;29.80;43.70;;;;;;5065195;28;20040;-60
2022/06/16 13:12:24;;;;;;;1.35;0.80;;;29.90;43.70;;;;;;5071876;28;20033;-60
2022/06/16 13:14:57;;;;;;;2.53;0.70;;;30.00;44.30;;;;;;5070866;28;20070;-60
2022/06/16 13:17:27;;;;;;;2.42;0.80;;;30.10;44.20;;;;;;5073043;28;20176;-60
2022/06/16 13:20:00;;;;;;;1.70;1.10;;;30.20;42.40;;;;;;5069842;28;20150;-60
2022/06/16 13:22:38;;;;;;;1.52;0.80;;;30.40;42.80;;;;;;5079498;28;20587;-60
2022/06/16 13:25:10;;;;;;;1.20;0.60;;;30.60;42.40;;;;;;5071665;28;20027;-60
2022/06/16 13:27:41;;;;;;;2.72;0.95;;;30.50;42.00;;;;;;5070511;28;20029;-60
2022/06/16 13:30:09;;;;;;;2.70;1.05;;;30.50;41.70;;;;;;5072766;28;20023;-61
2022/06/16 13:32:48;;;;;;;1.27;0.60;;;30.40;41.20;;;;;;5069509;28;20021;-60